BYC weather

Yacuiba Airport
YacuĂ­ba, Tarija Department, Bolivia

Public forecast

Using degrees Celsius for public forecast. Weather courtesy of forecast.io.

METAR (pilot weather report)

Retrieved 2019/07/20 18:00 UTC (58 minutes ago):

SLYA 201800Z 03012KT 9999 NSC 30/21 Q1006

TAF (pilot weather forecast)

Forecast is more than 12 hours old.

Retrieved 2019/07/18 06:06 UTC (3 days ago):

TAF SLYA 180400Z 1806/1906 00000KT 9999 FEW020 BKN070 TX26/1819Z TN11 /1811Z BECMG 1816/1818 06010KT BECMG 1900/1902 00000KT